Time;durP1;ratioP1;P1;durP2;ratioP2;P2;SDS_P1;SDS_P2;PMS_P1;PMS_P2;Temp;Humidity;BMP_temperature;BMP_pressure;BME280_temperature;BME280_humidity;BME280_pressure;Samples;Min_cycle;Max_cycle;Signal;HPM_P1;HPM_P2
2023/07/09 00:01:41;;;;;;;;;;;18.60;99.90;;;;;;2585688;54;20829;31
2023/07/09 00:04:14;;;;;;;;;;;18.60;99.90;;;;;;2585535;54;20855;31
2023/07/09 00:06:47;;;;;;;;;;;18.60;99.90;;;;;;2604176;46;20729;31
2023/07/09 00:09:20;;;;;;;;;;;18.50;99.90;;;;;;2604043;46;22311;31
2023/07/09 00:11:57;;;;;;;;;;;18.50;99.90;;;;;;2585434;54;20795;31
2023/07/09 00:14:29;;;;;;;;;;;18.50;99.90;;;;;;2585879;54;19957;31
2023/07/09 00:17:02;;;;;;;;;;;18.40;99.90;;;;;;2585468;54;20719;31
2023/07/09 00:19:35;;;;;;;;;;;18.40;99.90;;;;;;2585495;54;19957;31
2023/07/09 00:22:10;;;;;;;;;;;18.30;99.90;;;;;;2585625;54;19935;31
2023/07/09 00:24:44;;;;;;;;;;;18.30;99.90;;;;;;2585869;54;21062;31
2023/07/09 00:27:21;;;;;;;;;;;18.30;99.90;;;;;;2604754;47;20780;31
2023/07/09 00:29:54;;;;;;;;;;;18.30;99.90;;;;;;2605011;46;20723;31
2023/07/09 00:32:28;;;;;;;;;;;18.20;99.90;;;;;;2702815;39;22369;31
2023/07/09 00:35:04;;;;;;;;;;;18.20;99.90;;;;;;2586210;54;20803;31
2023/07/09 00:37:37;;;;;;;;;;;18.10;99.90;;;;;;2585864;54;20854;31
2023/07/09 00:40:11;;;;;;;;;;;18.00;99.90;;;;;;2586197;54;19994;31
2023/07/09 00:42:48;;;;;;;;;;;18.00;99.90;;;;;;2586576;54;19957;31
2023/07/09 00:45:21;;;;;;;;;;;17.90;99.90;;;;;;2586210;54;20842;31
2023/07/09 00:47:57;;;;;;;;;;;17.90;99.90;;;;;;2586389;54;19934;31
2023/07/09 00:50:36;;;;;;;;;;;17.80;99.90;;;;;;2586536;54;21086;31
2023/07/09 00:53:18;;;;;;;;;;;17.80;99.90;;;;;;2604821;46;19984;31
2023/07/09 00:55:52;;;;;;;;;;;17.70;99.90;;;;;;2586136;54;19935;31
2023/07/09 00:58:27;;;;;;;;;;;17.70;99.90;;;;;;2604425;46;19938;31
2023/07/09 01:01:01;;;;;;;;;;;17.60;99.90;;;;;;2604836;46;20654;31
2023/07/09 01:03:36;;;;;;;;;;;17.50;99.90;;;;;;2585980;54;20665;31
2023/07/09 01:06:12;;;;;;;;;;;17.50;99.90;;;;;;2604833;46;20793;31
2023/07/09 01:08:46;;;;;;;;;;;17.50;99.90;;;;;;2586236;54;20801;31
2023/07/09 01:11:20;;;;;;;;;;;17.50;99.90;;;;;;2586163;54;19938;31
2023/07/09 01:13:57;;;;;;;;;;;17.40;99.90;;;;;;2586102;54;19976;31
2023/07/09 01:16:30;;;;;;;;;;;17.40;99.90;;;;;;2604425;46;20682;31
2023/07/09 01:19:04;;;;;;;;;;;17.40;99.90;;;;;;2604882;46;20724;31
2023/07/09 01:21:41;;;;;;;;;;;17.40;99.90;;;;;;2604579;46;19934;31
2023/07/09 01:24:14;;;;;;;;;;;17.40;99.90;;;;;;2586211;54;20788;31
2023/07/09 01:26:48;;;;;;;;;;;17.40;99.90;;;;;;2604802;46;21138;31
2023/07/09 01:29:21;;;;;;;;;;;17.50;99.90;;;;;;2586003;54;19935;31
2023/07/09 01:31:54;;;;;;;;;;;17.40;99.90;;;;;;2586395;54;19934;31
2023/07/09 01:34:28;;;;;;;;;;;17.40;99.90;;;;;;2586384;54;20849;31
2023/07/09 01:37:06;;;;;;;;;;;17.30;99.90;;;;;;2586194;54;20830;31
2023/07/09 01:39:41;;;;;;;;;;;17.40;99.90;;;;;;2585847;54;20728;31
2023/07/09 01:42:13;;;;;;;;;;;17.30;99.90;;;;;;2683978;39;21597;31
2023/07/09 01:44:46;;;;;;;;;;;17.30;99.90;;;;;;2585749;54;20653;31
2023/07/09 01:47:18;;;;;;;;;;;17.30;99.90;;;;;;2585795;54;19941;31
2023/07/09 01:49:56;;;;;;;;;;;17.20;99.90;;;;;;2586102;54;19946;31
2023/07/09 01:52:35;;;;;;;;;;;17.20;99.90;;;;;;2604634;46;19962;31
2023/07/09 01:55:08;;;;;;;;;;;17.20;99.90;;;;;;2586039;54;20879;31
2023/07/09 01:57:40;;;;;;;;;;;17.20;99.90;;;;;;2604553;46;19961;31
2023/07/09 02:00:15;;;;;;;;;;;17.20;99.90;;;;;;2585972;54;19934;31
2023/07/09 02:02:50;;;;;;;;;;;17.10;99.90;;;;;;2585820;54;19938;31
2023/07/09 02:05:23;;;;;;;;;;;17.10;99.90;;;;;;2585644;54;20771;31
2023/07/09 02:08:00;;;;;;;;;;;17.00;99.90;;;;;;2586241;54;21016;31
2023/07/09 02:10:34;;;;;;;;;;;16.90;99.90;;;;;;2585526;54;21292;31
2023/07/09 02:13:09;;;;;;;;;;;16.80;99.90;;;;;;2586107;54;19934;31
2023/07/09 02:15:43;;;;;;;;;;;16.90;99.90;;;;;;2585956;54;20791;31
2023/07/09 02:18:16;;;;;;;;;;;16.90;99.90;;;;;;2585814;54;19941;31
2023/07/09 02:20:48;;;;;;;;;;;16.80;99.90;;;;;;2585892;54;20019;31
2023/07/09 02:23:26;;;;;;;;;;;16.70;99.90;;;;;;2604273;46;19934;31
2023/07/09 02:25:57;;;;;;;;;;;16.70;99.90;;;;;;2586276;54;19935;31
2023/07/09 02:28:29;;;;;;;;;;;16.60;99.90;;;;;;2585945;54;19941;31
2023/07/09 02:31:02;;;;;;;;;;;16.70;99.90;;;;;;2603833;46;22428;31
2023/07/09 02:33:36;;;;;;;;;;;16.70;99.90;;;;;;2585776;54;19989;31
2023/07/09 02:36:09;;;;;;;;;;;16.70;99.90;;;;;;2586233;54;22259;31
2023/07/09 02:38:44;;;;;;;;;;;16.60;99.90;;;;;;2604131;46;19997;31
2023/07/09 02:41:17;;;;;;;;;;;16.60;99.90;;;;;;2585873;54;20837;31
2023/07/09 02:43:50;;;;;;;;;;;16.60;99.90;;;;;;2604484;46;20777;31
2023/07/09 02:46:24;;;;;;;;;;;16.60;99.90;;;;;;2585819;54;20810;31
2023/07/09 02:48:56;;;;;;;;;;;16.60;99.90;;;;;;2604122;46;19935;31
2023/07/09 02:51:29;;;;;;;;;;;16.60;99.90;;;;;;2586014;54;19935;31
2023/07/09 02:54:04;;;;;;;;;;;16.60;99.90;;;;;;2585912;54;20013;31
2023/07/09 02:56:36;;;;;;;;;;;16.60;99.90;;;;;;2585827;54;19935;31
2023/07/09 02:59:09;;;;;;;;;;;16.50;99.90;;;;;;2604345;46;19957;31
2023/07/09 03:01:42;;;;;;;;;;;16.50;99.90;;;;;;2586029;54;19941;31
2023/07/09 03:04:17;;;;;;;;;;;16.50;99.90;;;;;;2585739;54;20823;31
2023/07/09 03:06:52;;;;;;;;;;;16.50;99.90;;;;;;2604373;46;19934;31
2023/07/09 03:09:28;;;;;;;;;;;16.40;99.90;;;;;;2585214;54;19948;31
2023/07/09 03:12:01;;;;;;;;;;;16.30;99.90;;;;;;2585741;54;20030;31
2023/07/09 03:14:34;;;;;;;;;;;16.40;99.90;;;;;;2585717;54;20021;31
2023/07/09 03:17:08;;;;;;;;;;;16.30;99.90;;;;;;2584996;54;19941;31
2023/07/09 03:19:41;;;;;;;;;;;16.30;99.90;;;;;;2585624;54;20515;31
2023/07/09 03:22:15;;;;;;;;;;;16.30;99.90;;;;;;2584892;54;19939;31
2023/07/09 03:24:54;;;;;;;;;;;16.30;99.90;;;;;;2602266;46;19935;31
2023/07/09 03:27:30;;;;;;;;;;;16.30;99.90;;;;;;2598153;46;20958;31
2023/07/09 03:30:02;;;;;;;;;;;16.40;99.90;;;;;;2586015;54;22385;31
2023/07/09 03:32:35;;;;;;;;;;;16.40;99.90;;;;;;2584781;54;20801;31
2023/07/09 03:35:08;;;;;;;;;;;16.40;99.90;;;;;;2683958;39;20913;31
2023/07/09 03:37:42;;;;;;;;;;;16.50;99.90;;;;;;2585761;54;20805;31
2023/07/09 03:40:22;;;;;;;;;;;16.60;99.90;;;;;;2585925;54;19934;31
2023/07/09 03:42:56;;;;;;;;;;;16.60;99.90;;;;;;2604401;46;21047;31
2023/07/09 03:45:30;;;;;;;;;;;16.70;99.90;;;;;;2585551;54;20834;31
2023/07/09 03:48:03;;;;;;;;;;;16.80;99.90;;;;;;2585525;54;19935;31
2023/07/09 03:50:35;;;;;;;;;;;16.90;99.90;;;;;;2585774;54;20020;31
2023/07/09 03:53:08;;;;;;;;;;;17.00;99.90;;;;;;2603668;46;19938;31
2023/07/09 03:55:45;;;;;;;;;;;17.20;99.90;;;;;;2585639;54;19935;31
2023/07/09 03:58:26;;;;;;;;;;;17.40;99.90;;;;;;2604301;46;19934;31
2023/07/09 04:01:01;;;;;;;;;;;17.50;99.90;;;;;;2585074;46;20827;31
2023/07/09 04:03:37;;;;;;;;;;;17.70;99.90;;;;;;2584762;54;20739;31
2023/07/09 04:06:10;;;;;;;;;;;17.90;99.90;;;;;;2604136;46;20854;31
2023/07/09 04:08:44;;;;;;;;;;;17.90;99.90;;;;;;2603764;46;20521;31
2023/07/09 04:11:22;;;;;;;;;;;18.10;99.90;;;;;;2585099;54;20835;31
2023/07/09 04:13:55;;;;;;;;;;;18.30;99.90;;;;;;2604092;46;19934;31
2023/07/09 04:16:29;;;;;;;;;;;18.50;99.90;;;;;;2585468;54;20841;31
2023/07/09 04:19:02;;;;;;;;;;;18.60;99.90;;;;;;2585638;54;19965;31
2023/07/09 04:21:35;;;;;;;;;;;18.90;99.90;;;;;;2585666;54;19934;31
2023/07/09 04:24:09;;;;;;;;;;;19.00;99.90;;;;;;2585641;54;19941;31
2023/07/09 04:26:45;;;;;;;;;;;19.10;99.90;;;;;;2604273;47;19934;31
2023/07/09 04:29:18;;;;;;;;;;;19.30;99.90;;;;;;2585591;54;19946;31
2023/07/09 04:31:52;;;;;;;;;;;19.50;99.90;;;;;;2604224;47;21106;31
2023/07/09 04:34:31;;;;;;;;;;;19.70;99.90;;;;;;2585515;54;20777;31
2023/07/09 04:37:05;;;;;;;;;;;19.90;99.90;;;;;;2585575;54;19946;31
2023/07/09 04:39:41;;;;;;;;;;;20.10;99.90;;;;;;2585766;54;20013;31
2023/07/09 04:42:18;;;;;;;;;;;20.30;99.90;;;;;;2585412;54;19935;31
2023/07/09 04:44:55;;;;;;;;;;;20.40;99.90;;;;;;2701673;39;20564;31
2023/07/09 04:47:31;;;;;;;;;;;20.60;99.90;;;;;;2604003;46;19939;31
2023/07/09 04:50:06;;;;;;;;;;;20.80;99.90;;;;;;2585245;54;20871;31
2023/07/09 04:52:39;;;;;;;;;;;21.00;99.90;;;;;;2585046;54;20723;31
2023/07/09 04:55:18;;;;;;;;;;;21.10;99.90;;;;;;2584842;54;20680;31
2023/07/09 04:57:55;;;;;;;;;;;21.30;99.90;;;;;;2584466;54;19942;31
2023/07/09 05:00:29;;;;;;;;;;;21.50;99.90;;;;;;2603776;47;20810;31
2023/07/09 05:03:04;;;;;;;;;;;21.70;99.90;;;;;;2604292;47;19941;31
2023/07/09 05:05:37;;;;;;;;;;;21.90;99.90;;;;;;2601639;47;19938;31
2023/07/09 05:08:10;;;;;;;;;;;22.00;99.90;;;;;;2584249;54;20054;31
2023/07/09 05:10:45;;;;;;;;;;;22.20;99.90;;;;;;2603003;47;19957;31
2023/07/09 05:13:22;;;;;;;;;;;22.40;99.90;;;;;;2603952;47;20770;31
2023/07/09 05:16:00;;;;;;;;;;;22.60;99.90;;;;;;2684130;39;20432;31
2023/07/09 05:18:35;;;;;;;;;;;22.70;99.90;;;;;;2702665;39;22297;31
2023/07/09 05:21:08;;;;;;;;;;;23.00;99.90;;;;;;2604600;46;20050;31
2023/07/09 05:23:41;;;;;;;;;;;23.10;99.90;;;;;;2585889;54;20698;31
2023/07/09 05:26:15;;;;;;;;;;;23.20;99.90;;;;;;2604365;46;20820;31
2023/07/09 05:28:48;;;;;;;;;;;23.40;99.90;;;;;;2586156;54;20722;31
2023/07/09 05:31:27;;;;;;;;;;;23.50;99.90;;;;;;2604558;46;20774;31
2023/07/09 05:34:00;;;;;;;;;;;23.70;99.90;;;;;;2604410;46;20843;31
2023/07/09 05:36:33;;;;;;;;;;;23.80;99.90;;;;;;2585828;54;19934;31
2023/07/09 05:39:06;;;;;;;;;;;24.00;99.90;;;;;;2586014;54;20707;31
2023/07/09 05:41:40;;;;;;;;;;;24.10;99.90;;;;;;2604710;46;20844;31
2023/07/09 05:44:14;;;;;;;;;;;24.40;99.90;;;;;;2585835;54;19935;31
2023/07/09 05:46:50;;;;;;;;;;;24.50;99.90;;;;;;2585805;54;19935;31
2023/07/09 05:49:26;;;;;;;;;;;24.70;99.90;;;;;;2585901;54;19934;31
2023/07/09 05:51:59;;;;;;;;;;;24.80;99.90;;;;;;2586096;54;20882;31
2023/07/09 05:54:33;;;;;;;;;;;25.10;99.90;;;;;;2586118;54;19985;31
2023/07/09 05:57:06;;;;;;;;;;;25.20;99.90;;;;;;2585219;54;20803;31
2023/07/09 05:59:39;;;;;;;;;;;25.40;99.90;;;;;;2585795;54;20687;31
2023/07/09 06:02:16;;;;;;;;;;;25.50;99.90;;;;;;2585912;54;19965;31
2023/07/09 06:04:50;;;;;;;;;;;25.70;99.90;;;;;;2604198;46;20699;31
2023/07/09 06:07:24;;;;;;;;;;;25.80;99.90;;;;;;2604473;46;20699;31
2023/07/09 06:09:57;;;;;;;;;;;26.00;99.90;;;;;;2586032;54;19934;31
2023/07/09 06:12:30;;;;;;;;;;;26.20;99.90;;;;;;2586178;54;21055;31
2023/07/09 06:15:03;;;;;;;;;;;26.30;99.90;;;;;;2604535;46;19941;31
2023/07/09 06:17:40;;;;;;;;;;;26.50;99.90;;;;;;2585131;54;20843;31
2023/07/09 06:20:13;;;;;;;;;;;26.70;99.90;;;;;;2604410;46;19934;31
2023/07/09 06:22:50;;;;;;;;;;;26.90;99.90;;;;;;2585644;54;20719;31
2023/07/09 06:25:22;;;;;;;;;;;27.10;99.90;;;;;;2585727;54;20705;31
2023/07/09 06:27:54;;;;;;;;;;;27.30;99.90;;;;;;2604350;46;21836;31
2023/07/09 06:30:30;;;;;;;;;;;27.60;99.90;;;;;;2604158;46;19935;31
2023/07/09 06:33:07;;;;;;;;;;;27.70;99.90;;;;;;2585531;54;20767;31
2023/07/09 06:35:40;;;;;;;;;;;27.80;99.90;;;;;;2596063;46;19942;31
2023/07/09 06:38:13;;;;;;;;;;;28.00;99.90;;;;;;2585560;54;20789;31
2023/07/09 06:40:47;;;;;;;;;;;28.20;99.90;;;;;;2603591;46;19941;31
2023/07/09 06:43:20;;;;;;;;;;;28.30;99.90;;;;;;2585305;54;19938;31
2023/07/09 06:45:56;;;;;;;;;;;28.50;99.90;;;;;;2585334;54;20710;31
2023/07/09 06:48:33;;;;;;;;;;;28.70;99.90;;;;;;2585384;54;20804;31
2023/07/09 06:51:10;;;;;;;;;;;28.90;99.90;;;;;;2585386;54;19985;31
2023/07/09 06:53:42;;;;;;;;;;;29.10;99.90;;;;;;2584637;54;19930;31
2023/07/09 06:56:15;;;;;;;;;;;29.30;99.90;;;;;;2584658;54;19934;31
2023/07/09 06:58:47;;;;;;;;;;;29.30;99.90;;;;;;2603750;46;21780;31
2023/07/09 07:01:20;;;;;;;;;;;29.50;99.90;;;;;;2603747;46;20813;31
2023/07/09 07:03:56;;;;;;;;;;;29.70;99.90;;;;;;2585260;54;20821;31
2023/07/09 07:06:31;;;;;;;;;;;29.90;99.90;;;;;;2585257;54;19939;31
2023/07/09 07:09:04;;;;;;;;;;;30.10;99.90;;;;;;2585260;54;20758;31
2023/07/09 07:11:37;;;;;;;;;;;30.20;99.90;;;;;;2603603;46;19960;31
2023/07/09 07:14:10;;;;;;;;;;;30.40;99.90;;;;;;2585319;54;19934;31
2023/07/09 07:16:45;;;;;;;;;;;30.60;99.90;;;;;;2584646;54;20781;31
2023/07/09 07:19:21;;;;;;;;;;;30.70;99.90;;;;;;2585544;54;19934;31
2023/07/09 07:21:54;;;;;;;;;;;30.80;99.90;;;;;;2585485;54;20741;31
2023/07/09 07:24:29;;;;;;;;;;;31.00;99.90;;;;;;2702470;39;20962;31
2023/07/09 07:27:01;;;;;;;;;;;31.20;99.90;;;;;;2585393;54;20848;31
2023/07/09 07:29:34;;;;;;;;;;;31.20;99.90;;;;;;2585477;54;20795;31
2023/07/09 07:32:08;;;;;;;;;;;31.20;99.90;;;;;;2585524;54;20820;31
2023/07/09 07:34:46;;;;;;;;;;;31.30;99.90;;;;;;2585369;54;20060;31
2023/07/09 07:37:21;;;;;;;;;;;31.40;99.80;;;;;;2604050;46;20792;31
2023/07/09 07:39:54;;;;;;;;;;;31.70;97.40;;;;;;2585445;54;19941;31
2023/07/09 07:42:28;;;;;;;;;;;31.80;97.10;;;;;;2604074;46;20866;31
2023/07/09 07:44:59;;;;;;;;;;;32.10;97.40;;;;;;2585900;54;19941;31
2023/07/09 07:47:39;;;;;;;;;;;32.30;95.70;;;;;;2585634;54;19934;31
2023/07/09 07:50:16;;;;;;;;;;;32.50;96.70;;;;;;2585837;54;20040;31
2023/07/09 07:52:49;;;;;;;;;;;32.60;95.90;;;;;;2585618;54;20013;31
2023/07/09 07:55:22;;;;;;;;;;;32.80;94.00;;;;;;2684089;39;22153;31
2023/07/09 07:57:56;;;;;;;;;;;33.00;94.00;;;;;;2585846;54;19934;31
2023/07/09 08:00:27;;;;;;;;;;;33.10;93.50;;;;;;2585856;54;19989;31
2023/07/09 08:03:01;;;;;;;;;;;33.20;93.20;;;;;;2585806;54;19935;31
2023/07/09 08:05:35;;;;;;;;;;;33.30;93.00;;;;;;2585887;54;19957;31
2023/07/09 08:08:11;;;;;;;;;;;33.40;92.10;;;;;;2585251;54;19949;31
2023/07/09 08:10:44;;;;;;;;;;;33.40;91.20;;;;;;2604469;46;20873;31
2023/07/09 08:13:17;;;;;;;;;;;33.40;89.10;;;;;;2585805;54;20462;31
2023/07/09 08:15:50;;;;;;;;;;;33.60;90.60;;;;;;2702701;39;22203;31
2023/07/09 08:18:22;;;;;;;;;;;33.70;87.50;;;;;;2585845;54;19935;31
2023/07/09 08:20:58;;;;;;;;;;;33.90;89.20;;;;;;2585729;54;19934;31
2023/07/09 08:23:33;;;;;;;;;;;33.90;87.90;;;;;;2586008;54;20726;31
2023/07/09 08:26:05;;;;;;;;;;;33.90;88.40;;;;;;2585852;54;19934;31
2023/07/09 08:28:39;;;;;;;;;;;33.90;86.60;;;;;;2586157;54;20791;31
2023/07/09 08:31:14;;;;;;;;;;;34.10;88.80;;;;;;2585524;54;20820;31
2023/07/09 08:33:46;;;;;;;;;;;34.10;88.50;;;;;;2585130;54;19939;31
2023/07/09 08:36:26;;;;;;;;;;;34.20;88.70;;;;;;2585448;54;19956;31
2023/07/09 08:39:03;;;;;;;;;;;34.30;86.40;;;;;;2585975;54;20710;31
2023/07/09 08:41:35;;;;;;;;;;;34.50;87.80;;;;;;2585764;54;20869;31
2023/07/09 08:44:24;;;;;;;;;;;34.50;85.10;;;;;;2604248;47;20854;31
2023/07/09 08:46:56;;;;;;;;;;;34.60;82.80;;;;;;2604560;47;20865;31
2023/07/09 08:49:29;;;;;;;;;;;34.80;83.80;;;;;;2586761;54;20773;31
2023/07/09 08:52:06;;;;;;;;;;;34.80;78.70;;;;;;2586479;54;20821;31
2023/07/09 08:54:37;;;;;;;;;;;35.00;79.30;;;;;;2586929;54;20713;31
2023/07/09 08:57:13;;;;;;;;;;;35.10;75.50;;;;;;2684807;39;22246;31
2023/07/09 08:59:45;;;;;;;;;;;35.20;76.40;;;;;;2586501;54;20667;31
2023/07/09 09:02:21;;;;;;;;;;;35.20;72.70;;;;;;2585544;54;19939;31
2023/07/09 09:04:52;;;;;;;;;;;35.40;75.00;;;;;;2586629;54;20790;31
2023/07/09 09:07:28;;;;;;;;;;;35.50;71.40;;;;;;2586396;54;19954;31
2023/07/09 09:10:01;;;;;;;;;;;35.50;69.60;;;;;;2586764;54;22334;31
2023/07/09 09:12:37;;;;;;;;;;;35.50;67.30;;;;;;2604800;46;19934;31
2023/07/09 09:15:12;;;;;;;;;;;35.40;67.90;;;;;;2586459;54;20834;31
2023/07/09 09:17:45;;;;;;;;;;;35.50;66.30;;;;;;2586302;54;20814;31
2023/07/09 09:20:21;;;;;;;;;;;35.50;66.90;;;;;;2585986;54;20712;31
2023/07/09 09:22:55;;;;;;;;;;;35.50;65.80;;;;;;2586770;54;19939;31
2023/07/09 09:25:28;;;;;;;;;;;35.60;66.20;;;;;;2605103;46;20801;31
2023/07/09 09:28:02;;;;;;;;;;;35.70;66.30;;;;;;2586475;54;19960;31
2023/07/09 09:30:34;;;;;;;;;;;35.70;65.80;;;;;;2605096;46;19934;31
2023/07/09 09:33:12;;;;;;;;;;;35.80;64.20;;;;;;2586314;54;20841;31
2023/07/09 09:35:44;;;;;;;;;;;35.90;64.40;;;;;;2586359;54;20893;31
2023/07/09 09:38:22;;;;;;;;;;;36.00;61.20;;;;;;2586279;54;20688;31
2023/07/09 09:40:53;;;;;;;;;;;36.10;61.70;;;;;;2586492;54;19934;31
2023/07/09 09:43:26;;;;;;;;;;;36.00;60.50;;;;;;2586458;54;19961;31
2023/07/09 09:46:00;;;;;;;;;;;35.90;61.60;;;;;;2586531;54;19957;31
2023/07/09 09:48:33;;;;;;;;;;;35.80;60.90;;;;;;2604774;46;20811;31
2023/07/09 09:51:09;;;;;;;;;;;35.90;60.60;;;;;;2586076;54;20774;31
2023/07/09 09:53:47;;;;;;;;;;;35.70;58.80;;;;;;2586490;54;19989;31
2023/07/09 09:56:21;;;;;;;;;;;35.80;59.90;;;;;;2604936;46;20828;31
2023/07/09 09:58:55;;;;;;;;;;;35.70;58.90;;;;;;2585889;54;20793;31
2023/07/09 10:01:30;;;;;;;;;;;35.70;60.60;;;;;;2587314;46;20785;31
2023/07/09 10:04:01;;;;;;;;;;;35.60;59.10;;;;;;2586597;54;20798;31
2023/07/09 10:06:38;;;;;;;;;;;35.70;60.70;;;;;;2684521;39;22518;31
2023/07/09 10:09:18;;;;;;;;;;;35.70;59.30;;;;;;2586128;54;19960;31
2023/07/09 10:11:52;;;;;;;;;;;35.70;59.20;;;;;;2585945;54;20050;31
2023/07/09 10:14:28;;;;;;;;;;;35.60;59.00;;;;;;2604934;46;19934;31
2023/07/09 10:17:01;;;;;;;;;;;35.60;61.70;;;;;;2586079;54;20766;31
2023/07/09 10:19:34;;;;;;;;;;;35.60;59.30;;;;;;2604636;46;20056;31
2023/07/09 10:22:07;;;;;;;;;;;35.70;58.00;;;;;;2604812;46;19961;31
2023/07/09 10:24:45;;;;;;;;;;;35.60;59.10;;;;;;2586231;54;20859;31
2023/07/09 10:27:19;;;;;;;;;;;35.60;60.90;;;;;;2604632;46;20691;31
2023/07/09 10:29:56;;;;;;;;;;;35.60;58.00;;;;;;2604581;46;20820;31
2023/07/09 10:32:50;;;;;;;;;;;35.60;60.00;;;;;;2586134;54;20442;31
2023/07/09 10:35:24;;;;;;;;;;;35.70;60.50;;;;;;2586315;54;19934;31
2023/07/09 10:37:56;;;;;;;;;;;35.60;61.00;;;;;;2586363;54;20818;31
2023/07/09 10:40:33;;;;;;;;;;;35.60;60.30;;;;;;2586152;54;20815;31
2023/07/09 10:43:07;;;;;;;;;;;35.50;60.30;;;;;;2595864;46;19942;31
2023/07/09 10:45:41;;;;;;;;;;;35.40;59.90;;;;;;2586018;54;19940;31
2023/07/09 10:48:17;;;;;;;;;;;35.40;61.60;;;;;;2586288;54;19994;31
2023/07/09 10:50:49;;;;;;;;;;;35.50;62.60;;;;;;2605040;46;20701;31
2023/07/09 10:53:27;;;;;;;;;;;35.50;59.00;;;;;;2585271;54;20517;31
2023/07/09 10:56:03;;;;;;;;;;;35.40;60.90;;;;;;2586190;54;19934;31
2023/07/09 10:58:38;;;;;;;;;;;35.40;60.60;;;;;;2604594;46;20724;31
2023/07/09 11:01:10;;;;;;;;;;;35.30;60.00;;;;;;2585970;54;20932;31
2023/07/09 11:03:45;;;;;;;;;;;35.30;59.70;;;;;;2604581;46;19958;31
2023/07/09 11:06:22;;;;;;;;;;;35.40;58.80;;;;;;2604790;46;20696;31
2023/07/09 11:08:54;;;;;;;;;;;35.60;60.30;;;;;;2604736;46;20687;31
2023/07/09 11:11:32;;;;;;;;;;;35.40;59.50;;;;;;2604282;46;20813;31
2023/07/09 11:14:07;;;;;;;;;;;35.30;60.90;;;;;;2593479;46;19943;31
2023/07/09 11:16:41;;;;;;;;;;;35.20;59.80;;;;;;2586366;54;22245;31
2023/07/09 11:19:16;;;;;;;;;;;35.00;59.20;;;;;;2604724;46;19935;31
2023/07/09 11:21:48;;;;;;;;;;;34.90;61.90;;;;;;2586374;54;20775;31
2023/07/09 11:24:21;;;;;;;;;;;35.00;60.60;;;;;;2586076;54;20840;31
2023/07/09 11:26:56;;;;;;;;;;;35.00;59.30;;;;;;2585751;54;19956;31
2023/07/09 11:29:28;;;;;;;;;;;35.00;61.70;;;;;;2586172;54;20845;31
2023/07/09 11:32:10;;;;;;;;;;;35.00;61.10;;;;;;2585755;54;20795;31
2023/07/09 11:34:47;;;;;;;;;;;34.90;60.70;;;;;;2586064;54;19935;31
2023/07/09 11:37:22;;;;;;;;;;;34.80;61.60;;;;;;2604556;46;20854;31
2023/07/09 11:39:55;;;;;;;;;;;34.80;61.30;;;;;;2585931;54;20016;31
2023/07/09 11:42:32;;;;;;;;;;;34.60;59.00;;;;;;2586008;54;20806;31
2023/07/09 11:45:10;;;;;;;;;;;34.50;58.50;;;;;;2585806;54;20009;31
2023/07/09 11:47:41;;;;;;;;;;;34.60;61.50;;;;;;2596354;46;20782;31
2023/07/09 11:50:18;;;;;;;;;;;34.60;61.80;;;;;;2683207;39;20944;31
2023/07/09 11:52:54;;;;;;;;;;;34.60;60.30;;;;;;2586055;54;19942;31
2023/07/09 11:55:35;;;;;;;;;;;34.50;61.60;;;;;;2594746;46;19942;31
2023/07/09 11:58:12;;;;;;;;;;;34.50;61.50;;;;;;2586070;54;20698;31
2023/07/09 12:00:48;;;;;;;;;;;34.50;60.80;;;;;;2604498;46;19941;31
2023/07/09 12:03:22;;;;;;;;;;;34.50;60.20;;;;;;2604593;46;20847;31
2023/07/09 12:05:55;;;;;;;;;;;34.50;59.50;;;;;;2585635;54;19941;31
2023/07/09 12:08:29;;;;;;;;;;;34.40;60.20;;;;;;2585486;54;19961;31
2023/07/09 12:11:01;;;;;;;;;;;34.30;60.80;;;;;;2585806;54;19934;31
2023/07/09 12:13:42;;;;;;;;;;;34.30;61.80;;;;;;2604465;46;20807;31
2023/07/09 12:16:27;;;;;;;;;;;34.20;59.50;;;;;;2585927;54;20827;31
2023/07/09 12:18:59;;;;;;;;;;;34.00;61.90;;;;;;2603972;46;19969;31
2023/07/09 12:21:30;;;;;;;;;;;34.00;60.30;;;;;;2603910;46;19961;31
2023/07/09 12:24:02;;;;;;;;;;;34.00;60.70;;;;;;2585848;54;19935;31
2023/07/09 12:26:34;;;;;;;;;;;33.90;59.40;;;;;;2586013;54;19935;31
2023/07/09 12:29:11;;;;;;;;;;;34.00;60.00;;;;;;2604342;47;20877;31
2023/07/09 12:31:43;;;;;;;;;;;34.00;61.30;;;;;;2683827;39;22104;31
2023/07/09 12:34:17;;;;;;;;;;;34.00;62.40;;;;;;2684007;39;22226;31
2023/07/09 12:36:49;;;;;;;;;;;34.00;61.50;;;;;;2604497;47;19934;31
2023/07/09 12:39:27;;;;;;;;;;;34.00;61.80;;;;;;2585711;54;19934;31
2023/07/09 12:42:03;;;;;;;;;;;34.00;61.00;;;;;;2585568;54;19934;31
2023/07/09 12:44:40;;;;;;;;;;;34.00;60.10;;;;;;2585774;54;20872;31
2023/07/09 12:47:12;;;;;;;;;;;34.00;60.70;;;;;;2585982;54;19941;31
2023/07/09 12:49:50;;;;;;;;;;;34.00;63.10;;;;;;2585824;54;20707;31
2023/07/09 12:52:24;;;;;;;;;;;34.00;60.10;;;;;;2604386;47;20788;31
2023/07/09 12:54:59;;;;;;;;;;;33.90;61.00;;;;;;2584873;54;19950;31
2023/07/09 12:57:30;;;;;;;;;;;33.80;61.30;;;;;;2604301;47;19935;31
2023/07/09 13:00:09;;;;;;;;;;;33.80;61.10;;;;;;2604107;47;20931;31
2023/07/09 13:02:43;;;;;;;;;;;33.70;59.80;;;;;;2604253;47;20802;31
2023/07/09 13:05:22;;;;;;;;;;;33.70;60.60;;;;;;2585639;54;19950;31
2023/07/09 13:07:54;;;;;;;;;;;33.60;59.60;;;;;;2585777;54;19935;31
2023/07/09 13:10:27;;;;;;;;;;;33.50;59.50;;;;;;2585715;54;19935;31
2023/07/09 13:13:00;;;;;;;;;;;33.40;59.70;;;;;;2585661;54;19962;31
2023/07/09 13:15:35;;;;;;;;;;;33.40;63.10;;;;;;2585619;54;19934;31
2023/07/09 13:18:09;;;;;;;;;;;33.40;60.10;;;;;;2585296;54;20782;31
2023/07/09 13:20:42;;;;;;;;;;;33.30;61.10;;;;;;2585397;54;19935;31
2023/07/09 13:23:14;;;;;;;;;;;33.30;61.80;;;;;;2603734;47;22278;31
2023/07/09 13:25:50;;;;;;;;;;;33.30;60.50;;;;;;2585408;54;19939;31
2023/07/09 13:28:26;;;;;;;;;;;33.30;60.10;;;;;;2604418;47;19950;31
2023/07/09 13:30:58;;;;;;;;;;;33.10;61.10;;;;;;2604040;47;19945;31
2023/07/09 13:33:33;;;;;;;;;;;33.20;61.10;;;;;;2604487;47;20850;31
2023/07/09 13:36:06;;;;;;;;;;;33.10;60.40;;;;;;2586453;54;20809;31
2023/07/09 13:38:38;;;;;;;;;;;33.00;59.30;;;;;;2605052;46;19985;31
2023/07/09 13:41:14;;;;;;;;;;;33.00;60.40;;;;;;2586584;54;19934;31
2023/07/09 13:43:48;;;;;;;;;;;32.90;59.00;;;;;;2586622;54;22232;31
2023/07/09 13:46:20;;;;;;;;;;;33.00;60.30;;;;;;2605168;46;20788;31
2023/07/09 13:48:57;;;;;;;;;;;32.90;59.70;;;;;;2586361;54;20020;31
2023/07/09 13:51:31;;;;;;;;;;;32.90;61.30;;;;;;2586285;54;20692;31
2023/07/09 13:54:04;;;;;;;;;;;32.90;60.50;;;;;;2586256;54;20812;31
2023/07/09 13:56:38;;;;;;;;;;;32.90;60.80;;;;;;2604954;46;20775;31
2023/07/09 13:59:14;;;;;;;;;;;32.90;60.70;;;;;;2773907;31;22388;31
2023/07/09 14:01:47;;;;;;;;;;;32.90;59.70;;;;;;2586380;54;20895;31
2023/07/09 14:04:23;;;;;;;;;;;32.90;59.90;;;;;;2604953;46;19935;31
2023/07/09 14:06:57;;;;;;;;;;;32.80;59.00;;;;;;2586518;54;19941;31
2023/07/09 14:09:31;;;;;;;;;;;32.80;60.40;;;;;;2585976;46;20805;31
2023/07/09 14:12:05;;;;;;;;;;;32.80;60.20;;;;;;2604479;46;20817;31
2023/07/09 14:14:38;;;;;;;;;;;32.80;59.50;;;;;;2604774;46;20873;31
2023/07/09 14:17:11;;;;;;;;;;;32.80;57.90;;;;;;2684371;39;22193;31
2023/07/09 14:19:48;;;;;;;;;;;32.80;58.60;;;;;;2586088;54;20780;31
2023/07/09 14:22:24;;;;;;;;;;;32.70;58.60;;;;;;2586321;54;19957;31
2023/07/09 14:24:58;;;;;;;;;;;32.70;59.40;;;;;;2586093;54;19989;31
2023/07/09 14:27:32;;;;;;;;;;;32.60;58.80;;;;;;2586113;54;19938;31
2023/07/09 14:30:07;;;;;;;;;;;32.60;58.60;;;;;;2604441;46;20806;31
2023/07/09 14:32:41;;;;;;;;;;;32.50;58.10;;;;;;2585878;54;19942;31
2023/07/09 14:35:17;;;;;;;;;;;32.50;59.20;;;;;;2604935;46;19962;31
2023/07/09 14:40:19;;;;;;;;;;;32.50;57.90;;;;;;2603953;46;20698;31
2023/07/09 14:42:55;;;;;;;;;;;32.40;57.80;;;;;;2603343;46;19935;31
2023/07/09 14:45:29;;;;;;;;;;;32.40;58.00;;;;;;2585831;54;20933;31
2023/07/09 14:48:02;;;;;;;;;;;32.30;58.40;;;;;;2684116;39;22424;31
2023/07/09 14:50:38;;;;;;;;;;;32.30;57.20;;;;;;2585098;54;20750;31
2023/07/09 14:53:15;;;;;;;;;;;32.30;58.60;;;;;;2604582;46;20684;31
2023/07/09 14:55:49;;;;;;;;;;;32.30;56.90;;;;;;2586116;54;19935;31
2023/07/09 14:58:24;;;;;;;;;;;32.30;58.80;;;;;;2604652;46;19934;31
2023/07/09 15:00:57;;;;;;;;;;;32.30;59.50;;;;;;2585936;54;20865;31
2023/07/09 15:03:30;;;;;;;;;;;32.30;58.90;;;;;;2604151;46;19934;31
2023/07/09 15:06:07;;;;;;;;;;;32.30;56.50;;;;;;2585752;54;19940;31
2023/07/09 15:08:40;;;;;;;;;;;32.30;57.20;;;;;;2684130;39;22327;31
2023/07/09 15:11:11;;;;;;;;;;;32.20;56.00;;;;;;2586097;54;20886;31
2023/07/09 15:16:12;;;;;;;;;;;32.00;56.60;;;;;;2585443;54;20807;31
2023/07/09 15:18:45;;;;;;;;;;;32.00;57.70;;;;;;2586008;54;22283;31